<?xml version="1.0" encoding="UTF-8" standalone="no" ?>
<gpx xmlns="http://www.topografix.com/GPX/1/1" xmlns:xsi="http://www.w3.org/2001/XMLSchema-instance" xsi:schemaLocation="http://www.topografix.com/GPX/1/1 http://www.topografix.com/GPX/1/1/gpx.xsd" version="1.1" creator="VisuGPX - https://www.visugpx.com">
  <metadata>
    <name>Circuit 57 km Les Herbiers_Les Herbiers édité par cth85.com</name>
    <desc><![CDATA[Les Herbiers/ La Croix-Bara / Le Boupère /
Rochetrejoux / Mouchamps / St Cécile / A/droite la 
D39 / 4 routes a/droite L'Oie / Vendrennes / Mesnard la Barotière / Les Herbiers]]></desc>
  </metadata>
  <trk>
    <name><![CDATA[Les Herbiers Les Herbiers on GPSies.com]]></name>
    <trkseg>
      <trkpt lat="46.87075" lon="-1.01692">
        <ele>113</ele>
        <time>2009-12-31T10:30:24Z</time>
      </trkpt>
      <trkpt lat="46.87075" lon="-1.01693">
        <ele>113</ele>
        <time>2009-12-31T10:30:25Z</time>
      </trkpt>
      <trkpt lat="46.87073" lon="-1.01693">
        <ele>113</ele>
        <time>2009-12-31T10:30:25Z</time>
      </trkpt>
      <trkpt lat="46.87102" lon="-1.01521">
        <ele>110</ele>
        <time>2009-12-31T10:30:44Z</time>
      </trkpt>
      <trkpt lat="46.87112" lon="-1.01336">
        <ele>108</ele>
        <time>2009-12-31T10:31:05Z</time>
      </trkpt>
      <trkpt lat="46.8711" lon="-1.01316">
        <ele>108</ele>
        <time>2009-12-31T10:31:07Z</time>
      </trkpt>
      <trkpt lat="46.86987" lon="-1.00885">
        <ele>103</ele>
        <time>2009-12-31T10:31:58Z</time>
      </trkpt>
      <trkpt lat="46.86948" lon="-1.00674">
        <ele>106</ele>
        <time>2009-12-31T10:32:22Z</time>
      </trkpt>
      <trkpt lat="46.86937" lon="-1.00649">
        <ele>106</ele>
        <time>2009-12-31T10:32:25Z</time>
      </trkpt>
      <trkpt lat="46.86932" lon="-1.00587">
        <ele>105</ele>
        <time>2009-12-31T10:32:32Z</time>
      </trkpt>
      <trkpt lat="46.86837" lon="-0.99922">
        <ele>114</ele>
        <time>2009-12-31T10:33:46Z</time>
      </trkpt>
      <trkpt lat="46.86753" lon="-0.99386">
        <ele>121</ele>
        <time>2009-12-31T10:34:46Z</time>
      </trkpt>
      <trkpt lat="46.86631" lon="-0.98544">
        <ele>131</ele>
        <time>2009-12-31T10:36:21Z</time>
      </trkpt>
      <trkpt lat="46.86625" lon="-0.98486">
        <ele>140</ele>
        <time>2009-12-31T10:36:27Z</time>
      </trkpt>
      <trkpt lat="46.86623" lon="-0.98415">
        <ele>140</ele>
        <time>2009-12-31T10:36:35Z</time>
      </trkpt>
      <trkpt lat="46.86626" lon="-0.98178">
        <ele>140</ele>
        <time>2009-12-31T10:37:01Z</time>
      </trkpt>
      <trkpt lat="46.86621" lon="-0.98112">
        <ele>146</ele>
        <time>2009-12-31T10:37:08Z</time>
      </trkpt>
      <trkpt lat="46.86604" lon="-0.97974">
        <ele>147</ele>
        <time>2009-12-31T10:37:23Z</time>
      </trkpt>
      <trkpt lat="46.86586" lon="-0.97881">
        <ele>147</ele>
        <time>2009-12-31T10:37:34Z</time>
      </trkpt>
      <trkpt lat="46.86565" lon="-0.97801">
        <ele>147</ele>
        <time>2009-12-31T10:37:43Z</time>
      </trkpt>
      <trkpt lat="46.86531" lon="-0.97705">
        <ele>149</ele>
        <time>2009-12-31T10:37:55Z</time>
      </trkpt>
      <trkpt lat="46.86492" lon="-0.9761">
        <ele>149</ele>
        <time>2009-12-31T10:38:07Z</time>
      </trkpt>
      <trkpt lat="46.86455" lon="-0.97536">
        <ele>145</ele>
        <time>2009-12-31T10:38:17Z</time>
      </trkpt>
      <trkpt lat="46.85769" lon="-0.96312">
        <ele>120</ele>
        <time>2009-12-31T10:41:11Z</time>
      </trkpt>
      <trkpt lat="46.85477" lon="-0.95829">
        <ele>107</ele>
        <time>2009-12-31T10:42:21Z</time>
      </trkpt>
      <trkpt lat="46.85416" lon="-0.95754">
        <ele>107</ele>
        <time>2009-12-31T10:42:34Z</time>
      </trkpt>
      <trkpt lat="46.85289" lon="-0.95625">
        <ele>108</ele>
        <time>2009-12-31T10:42:59Z</time>
      </trkpt>
      <trkpt lat="46.85208" lon="-0.9552">
        <ele>114</ele>
        <time>2009-12-31T10:43:16Z</time>
      </trkpt>
      <trkpt lat="46.85143" lon="-0.9541">
        <ele>117</ele>
        <time>2009-12-31T10:43:32Z</time>
      </trkpt>
      <trkpt lat="46.85116" lon="-0.95354">
        <ele>118</ele>
        <time>2009-12-31T10:43:40Z</time>
      </trkpt>
      <trkpt lat="46.85066" lon="-0.95237">
        <ele>121</ele>
        <time>2009-12-31T10:43:55Z</time>
      </trkpt>
      <trkpt lat="46.85048" lon="-0.95179">
        <ele>124</ele>
        <time>2009-12-31T10:44:02Z</time>
      </trkpt>
      <trkpt lat="46.85034" lon="-0.95065">
        <ele>125</ele>
        <time>2009-12-31T10:44:14Z</time>
      </trkpt>
      <trkpt lat="46.85033" lon="-0.95016">
        <ele>127</ele>
        <time>2009-12-31T10:44:20Z</time>
      </trkpt>
      <trkpt lat="46.85038" lon="-0.94941">
        <ele>129</ele>
        <time>2009-12-31T10:44:28Z</time>
      </trkpt>
      <trkpt lat="46.85063" lon="-0.94784">
        <ele>134</ele>
        <time>2009-12-31T10:44:46Z</time>
      </trkpt>
      <trkpt lat="46.85116" lon="-0.94549">
        <ele>136</ele>
        <time>2009-12-31T10:45:13Z</time>
      </trkpt>
      <trkpt lat="46.8515" lon="-0.9436">
        <ele>142</ele>
        <time>2009-12-31T10:45:34Z</time>
      </trkpt>
      <trkpt lat="46.85164" lon="-0.94239">
        <ele>144</ele>
        <time>2009-12-31T10:45:48Z</time>
      </trkpt>
      <trkpt lat="46.85172" lon="-0.94074">
        <ele>147</ele>
        <time>2009-12-31T10:46:06Z</time>
      </trkpt>
      <trkpt lat="46.85172" lon="-0.93951">
        <ele>150</ele>
        <time>2009-12-31T10:46:19Z</time>
      </trkpt>
      <trkpt lat="46.85159" lon="-0.93791">
        <ele>155</ele>
        <time>2009-12-31T10:46:37Z</time>
      </trkpt>
      <trkpt lat="46.85112" lon="-0.93515">
        <ele>161</ele>
        <time>2009-12-31T10:47:08Z</time>
      </trkpt>
      <trkpt lat="46.85093" lon="-0.93432">
        <ele>163</ele>
        <time>2009-12-31T10:47:18Z</time>
      </trkpt>
      <trkpt lat="46.85093" lon="-0.93432">
        <ele>163</ele>
        <time>2009-12-31T10:47:18Z</time>
      </trkpt>
      <trkpt lat="46.85029" lon="-0.93166">
        <ele>175</ele>
        <time>2009-12-31T10:47:48Z</time>
      </trkpt>
      <trkpt lat="46.84988" lon="-0.93153">
        <ele>175</ele>
        <time>2009-12-31T10:47:55Z</time>
      </trkpt>
      <trkpt lat="46.84947" lon="-0.93116">
        <ele>181</ele>
        <time>2009-12-31T10:48:03Z</time>
      </trkpt>
      <trkpt lat="46.84895" lon="-0.9309">
        <ele>181</ele>
        <time>2009-12-31T10:48:12Z</time>
      </trkpt>
      <trkpt lat="46.84839" lon="-0.93087">
        <ele>175</ele>
        <time>2009-12-31T10:48:21Z</time>
      </trkpt>
      <trkpt lat="46.84792" lon="-0.93095">
        <ele>175</ele>
        <time>2009-12-31T10:48:28Z</time>
      </trkpt>
      <trkpt lat="46.84593" lon="-0.93197">
        <ele>176</ele>
        <time>2009-12-31T10:49:02Z</time>
      </trkpt>
      <trkpt lat="46.84351" lon="-0.93345">
        <ele>168</ele>
        <time>2009-12-31T10:49:44Z</time>
      </trkpt>
      <trkpt lat="46.8431" lon="-0.93365">
        <ele>168</ele>
        <time>2009-12-31T10:49:51Z</time>
      </trkpt>
      <trkpt lat="46.84283" lon="-0.93368">
        <ele>168</ele>
        <time>2009-12-31T10:49:55Z</time>
      </trkpt>
      <trkpt lat="46.84157" lon="-0.93344">
        <ele>168</ele>
        <time>2009-12-31T10:50:16Z</time>
      </trkpt>
      <trkpt lat="46.84019" lon="-0.93278">
        <ele>167</ele>
        <time>2009-12-31T10:50:39Z</time>
      </trkpt>
      <trkpt lat="46.83992" lon="-0.93277">
        <ele>167</ele>
        <time>2009-12-31T10:50:43Z</time>
      </trkpt>
      <trkpt lat="46.83898" lon="-0.93304">
        <ele>166</ele>
        <time>2009-12-31T10:50:58Z</time>
      </trkpt>
      <trkpt lat="46.83798" lon="-0.93317">
        <ele>165</ele>
        <time>2009-12-31T10:51:15Z</time>
      </trkpt>
      <trkpt lat="46.83695" lon="-0.93306">
        <ele>165</ele>
        <time>2009-12-31T10:51:31Z</time>
      </trkpt>
      <trkpt lat="46.83548" lon="-0.93259">
        <ele>161</ele>
        <time>2009-12-31T10:51:55Z</time>
      </trkpt>
      <trkpt lat="46.8352" lon="-0.93258">
        <ele>157</ele>
        <time>2009-12-31T10:52:00Z</time>
      </trkpt>
      <trkpt lat="46.83455" lon="-0.93272">
        <ele>154</ele>
        <time>2009-12-31T10:52:10Z</time>
      </trkpt>
      <trkpt lat="46.83384" lon="-0.93271">
        <ele>154</ele>
        <time>2009-12-31T10:52:22Z</time>
      </trkpt>
      <trkpt lat="46.83304" lon="-0.93279">
        <ele>151</ele>
        <time>2009-12-31T10:52:34Z</time>
      </trkpt>
      <trkpt lat="46.82915" lon="-0.93262">
        <ele>137</ele>
        <time>2009-12-31T10:53:37Z</time>
      </trkpt>
      <trkpt lat="46.82877" lon="-0.93245">
        <ele>137</ele>
        <time>2009-12-31T10:53:43Z</time>
      </trkpt>
      <trkpt lat="46.82823" lon="-0.93204">
        <ele>133</ele>
        <time>2009-12-31T10:53:53Z</time>
      </trkpt>
      <trkpt lat="46.82767" lon="-0.9317">
        <ele>134</ele>
        <time>2009-12-31T10:54:03Z</time>
      </trkpt>
      <trkpt lat="46.82703" lon="-0.93144">
        <ele>137</ele>
        <time>2009-12-31T10:54:13Z</time>
      </trkpt>
      <trkpt lat="46.82661" lon="-0.93133">
        <ele>137</ele>
        <time>2009-12-31T10:54:20Z</time>
      </trkpt>
      <trkpt lat="46.82551" lon="-0.93117">
        <ele>140</ele>
        <time>2009-12-31T10:54:38Z</time>
      </trkpt>
      <trkpt lat="46.82428" lon="-0.93109">
        <ele>128</ele>
        <time>2009-12-31T10:54:57Z</time>
      </trkpt>
      <trkpt lat="46.82391" lon="-0.93115">
        <ele>128</ele>
        <time>2009-12-31T10:55:03Z</time>
      </trkpt>
      <trkpt lat="46.82313" lon="-0.9314">
        <ele>124</ele>
        <time>2009-12-31T10:55:16Z</time>
      </trkpt>
      <trkpt lat="46.82247" lon="-0.9314">
        <ele>126</ele>
        <time>2009-12-31T10:55:27Z</time>
      </trkpt>
      <trkpt lat="46.82196" lon="-0.93128">
        <ele>129</ele>
        <time>2009-12-31T10:55:35Z</time>
      </trkpt>
      <trkpt lat="46.82147" lon="-0.93109">
        <ele>132</ele>
        <time>2009-12-31T10:55:43Z</time>
      </trkpt>
      <trkpt lat="46.82126" lon="-0.93095">
        <ele>132</ele>
        <time>2009-12-31T10:55:47Z</time>
      </trkpt>
      <trkpt lat="46.82033" lon="-0.93009">
        <ele>140</ele>
        <time>2009-12-31T10:56:04Z</time>
      </trkpt>
      <trkpt lat="46.81985" lon="-0.92972">
        <ele>140</ele>
        <time>2009-12-31T10:56:13Z</time>
      </trkpt>
      <trkpt lat="46.81946" lon="-0.92961">
        <ele>140</ele>
        <time>2009-12-31T10:56:19Z</time>
      </trkpt>
      <trkpt lat="46.81881" lon="-0.92967">
        <ele>140</ele>
        <time>2009-12-31T10:56:30Z</time>
      </trkpt>
      <trkpt lat="46.81857" lon="-0.92975">
        <ele>141</ele>
        <time>2009-12-31T10:56:34Z</time>
      </trkpt>
      <trkpt lat="46.8173" lon="-0.93046">
        <ele>141</ele>
        <time>2009-12-31T10:56:56Z</time>
      </trkpt>
      <trkpt lat="46.81693" lon="-0.93056">
        <ele>140</ele>
        <time>2009-12-31T10:57:02Z</time>
      </trkpt>
      <trkpt lat="46.81645" lon="-0.93078">
        <ele>140</ele>
        <time>2009-12-31T10:57:10Z</time>
      </trkpt>
      <trkpt lat="46.8157" lon="-0.93125">
        <ele>141</ele>
        <time>2009-12-31T10:57:23Z</time>
      </trkpt>
      <trkpt lat="46.81504" lon="-0.9318">
        <ele>139</ele>
        <time>2009-12-31T10:57:35Z</time>
      </trkpt>
      <trkpt lat="46.81473" lon="-0.93195">
        <ele>139</ele>
        <time>2009-12-31T10:57:40Z</time>
      </trkpt>
      <trkpt lat="46.81151" lon="-0.93218">
        <ele>134</ele>
        <time>2009-12-31T10:58:32Z</time>
      </trkpt>
      <trkpt lat="46.81013" lon="-0.93254">
        <ele>128</ele>
        <time>2009-12-31T10:58:54Z</time>
      </trkpt>
      <trkpt lat="46.80938" lon="-0.93258">
        <ele>125</ele>
        <time>2009-12-31T10:59:06Z</time>
      </trkpt>
      <trkpt lat="46.80898" lon="-0.9325">
        <ele>125</ele>
        <time>2009-12-31T10:59:13Z</time>
      </trkpt>
      <trkpt lat="46.80786" lon="-0.93196">
        <ele>118</ele>
        <time>2009-12-31T10:59:32Z</time>
      </trkpt>
      <trkpt lat="46.80739" lon="-0.93182">
        <ele>118</ele>
        <time>2009-12-31T10:59:39Z</time>
      </trkpt>
      <trkpt lat="46.80677" lon="-0.93203">
        <ele>119</ele>
        <time>2009-12-31T10:59:49Z</time>
      </trkpt>
      <trkpt lat="46.80607" lon="-0.93238">
        <ele>125</ele>
        <time>2009-12-31T11:00:01Z</time>
      </trkpt>
      <trkpt lat="46.80579" lon="-0.93243">
        <ele>125</ele>
        <time>2009-12-31T11:00:06Z</time>
      </trkpt>
      <trkpt lat="46.80507" lon="-0.93241">
        <ele>130</ele>
        <time>2009-12-31T11:00:17Z</time>
      </trkpt>
      <trkpt lat="46.8047" lon="-0.93232">
        <ele>130</ele>
        <time>2009-12-31T11:00:23Z</time>
      </trkpt>
      <trkpt lat="46.80458" lon="-0.93224">
        <ele>137</ele>
        <time>2009-12-31T11:00:25Z</time>
      </trkpt>
      <trkpt lat="46.80366" lon="-0.93133">
        <ele>138</ele>
        <time>2009-12-31T11:00:43Z</time>
      </trkpt>
      <trkpt lat="46.80328" lon="-0.93089">
        <ele>136</ele>
        <time>2009-12-31T11:00:51Z</time>
      </trkpt>
      <trkpt lat="46.80223" lon="-0.92945">
        <ele>135</ele>
        <time>2009-12-31T11:01:14Z</time>
      </trkpt>
      <trkpt lat="46.80098" lon="-0.92815">
        <ele>139</ele>
        <time>2009-12-31T11:01:39Z</time>
      </trkpt>
      <trkpt lat="46.80079" lon="-0.928">
        <ele>139</ele>
        <time>2009-12-31T11:01:42Z</time>
      </trkpt>
      <trkpt lat="46.79946" lon="-0.92729">
        <ele>141</ele>
        <time>2009-12-31T11:02:05Z</time>
      </trkpt>
      <trkpt lat="46.79766" lon="-0.92645">
        <ele>140</ele>
        <time>2009-12-31T11:02:35Z</time>
      </trkpt>
      <trkpt lat="46.79753" lon="-0.92643">
        <ele>140</ele>
        <time>2009-12-31T11:02:37Z</time>
      </trkpt>
      <trkpt lat="46.79753" lon="-0.92643">
        <ele>140</ele>
        <time>2009-12-31T11:02:37Z</time>
      </trkpt>
      <trkpt lat="46.79766" lon="-0.92645">
        <ele>140</ele>
        <time>2009-12-31T11:02:39Z</time>
      </trkpt>
      <trkpt lat="46.79756" lon="-0.92687">
        <ele>140</ele>
        <time>2009-12-31T11:02:44Z</time>
      </trkpt>
      <trkpt lat="46.79743" lon="-0.92707">
        <ele>140</ele>
        <time>2009-12-31T11:02:47Z</time>
      </trkpt>
      <trkpt lat="46.79593" lon="-0.92805">
        <ele>141</ele>
        <time>2009-12-31T11:03:13Z</time>
      </trkpt>
      <trkpt lat="46.79578" lon="-0.92812">
        <ele>141</ele>
        <time>2009-12-31T11:03:16Z</time>
      </trkpt>
      <trkpt lat="46.79565" lon="-0.92811">
        <ele>141</ele>
        <time>2009-12-31T11:03:18Z</time>
      </trkpt>
      <trkpt lat="46.79532" lon="-0.92787">
        <ele>136</ele>
        <time>2009-12-31T11:03:24Z</time>
      </trkpt>
      <trkpt lat="46.79457" lon="-0.92868">
        <ele>137</ele>
        <time>2009-12-31T11:03:39Z</time>
      </trkpt>
      <trkpt lat="46.79458" lon="-0.92918">
        <ele>133</ele>
        <time>2009-12-31T11:03:44Z</time>
      </trkpt>
      <trkpt lat="46.79454" lon="-0.92945">
        <ele>133</ele>
        <time>2009-12-31T11:03:47Z</time>
      </trkpt>
      <trkpt lat="46.79437" lon="-0.92987">
        <ele>135</ele>
        <time>2009-12-31T11:03:53Z</time>
      </trkpt>
      <trkpt lat="46.79457" lon="-0.9305">
        <ele>137</ele>
        <time>2009-12-31T11:04:00Z</time>
      </trkpt>
      <trkpt lat="46.7946" lon="-0.9311">
        <ele>140</ele>
        <time>2009-12-31T11:04:07Z</time>
      </trkpt>
      <trkpt lat="46.79423" lon="-0.93309">
        <ele>140</ele>
        <time>2009-12-31T11:04:30Z</time>
      </trkpt>
      <trkpt lat="46.79395" lon="-0.93439">
        <ele>138</ele>
        <time>2009-12-31T11:04:45Z</time>
      </trkpt>
      <trkpt lat="46.79392" lon="-0.93477">
        <ele>137</ele>
        <time>2009-12-31T11:04:49Z</time>
      </trkpt>
      <trkpt lat="46.79396" lon="-0.93567">
        <ele>136</ele>
        <time>2009-12-31T11:04:59Z</time>
      </trkpt>
      <trkpt lat="46.79418" lon="-0.93652">
        <ele>135</ele>
        <time>2009-12-31T11:05:09Z</time>
      </trkpt>
      <trkpt lat="46.79432" lon="-0.93653">
        <ele>135</ele>
        <time>2009-12-31T11:05:11Z</time>
      </trkpt>
      <trkpt lat="46.79442" lon="-0.93669">
        <ele>135</ele>
        <time>2009-12-31T11:05:13Z</time>
      </trkpt>
      <trkpt lat="46.7944" lon="-0.93691">
        <ele>135</ele>
        <time>2009-12-31T11:05:16Z</time>
      </trkpt>
      <trkpt lat="46.79428" lon="-0.93702">
        <ele>135</ele>
        <time>2009-12-31T11:05:18Z</time>
      </trkpt>
      <trkpt lat="46.79437" lon="-0.9379">
        <ele>133</ele>
        <time>2009-12-31T11:05:28Z</time>
      </trkpt>
      <trkpt lat="46.79436" lon="-0.93819">
        <ele>134</ele>
        <time>2009-12-31T11:05:31Z</time>
      </trkpt>
      <trkpt lat="46.79432" lon="-0.93842">
        <ele>134</ele>
        <time>2009-12-31T11:05:33Z</time>
      </trkpt>
      <trkpt lat="46.79414" lon="-0.93891">
        <ele>132</ele>
        <time>2009-12-31T11:05:39Z</time>
      </trkpt>
      <trkpt lat="46.79329" lon="-0.94083">
        <ele>129</ele>
        <time>2009-12-31T11:06:05Z</time>
      </trkpt>
      <trkpt lat="46.79321" lon="-0.94108">
        <ele>129</ele>
        <time>2009-12-31T11:06:08Z</time>
      </trkpt>
      <trkpt lat="46.79319" lon="-0.94169">
        <ele>127</ele>
        <time>2009-12-31T11:06:14Z</time>
      </trkpt>
      <trkpt lat="46.79352" lon="-0.94632">
        <ele>118</ele>
        <time>2009-12-31T11:07:05Z</time>
      </trkpt>
      <trkpt lat="46.79312" lon="-0.94865">
        <ele>114</ele>
        <time>2009-12-31T11:07:32Z</time>
      </trkpt>
      <trkpt lat="46.79283" lon="-0.95214">
        <ele>111</ele>
        <time>2009-12-31T11:08:10Z</time>
      </trkpt>
      <trkpt lat="46.79274" lon="-0.95256">
        <ele>111</ele>
        <time>2009-12-31T11:08:15Z</time>
      </trkpt>
      <trkpt lat="46.79211" lon="-0.95471">
        <ele>107</ele>
        <time>2009-12-31T11:08:41Z</time>
      </trkpt>
      <trkpt lat="46.79194" lon="-0.95572">
        <ele>105</ele>
        <time>2009-12-31T11:08:52Z</time>
      </trkpt>
      <trkpt lat="46.79196" lon="-0.95649">
        <ele>104</ele>
        <time>2009-12-31T11:09:00Z</time>
      </trkpt>
      <trkpt lat="46.79215" lon="-0.95856">
        <ele>103</ele>
        <time>2009-12-31T11:09:23Z</time>
      </trkpt>
      <trkpt lat="46.79189" lon="-0.96213">
        <ele>112</ele>
        <time>2009-12-31T11:10:03Z</time>
      </trkpt>
      <trkpt lat="46.79177" lon="-0.96213">
        <ele>112</ele>
        <time>2009-12-31T11:10:05Z</time>
      </trkpt>
      <trkpt lat="46.79177" lon="-0.96213">
        <ele>112</ele>
        <time>2009-12-31T11:10:05Z</time>
      </trkpt>
      <trkpt lat="46.79189" lon="-0.96213">
        <ele>112</ele>
        <time>2009-12-31T11:10:07Z</time>
      </trkpt>
      <trkpt lat="46.7915" lon="-0.96509">
        <ele>112</ele>
        <time>2009-12-31T11:10:40Z</time>
      </trkpt>
      <trkpt lat="46.79141" lon="-0.9661">
        <ele>112</ele>
        <time>2009-12-31T11:10:51Z</time>
      </trkpt>
      <trkpt lat="46.79141" lon="-0.96626">
        <ele>111</ele>
        <time>2009-12-31T11:10:53Z</time>
      </trkpt>
      <trkpt lat="46.79164" lon="-0.96766">
        <ele>110</ele>
        <time>2009-12-31T11:11:08Z</time>
      </trkpt>
      <trkpt lat="46.79167" lon="-0.96845">
        <ele>110</ele>
        <time>2009-12-31T11:11:17Z</time>
      </trkpt>
      <trkpt lat="46.79151" lon="-0.97036">
        <ele>109</ele>
        <time>2009-12-31T11:11:38Z</time>
      </trkpt>
      <trkpt lat="46.7915" lon="-0.97083">
        <ele>109</ele>
        <time>2009-12-31T11:11:43Z</time>
      </trkpt>
      <trkpt lat="46.7916" lon="-0.97246">
        <ele>109</ele>
        <time>2009-12-31T11:12:01Z</time>
      </trkpt>
      <trkpt lat="46.79152" lon="-0.97324">
        <ele>109</ele>
        <time>2009-12-31T11:12:10Z</time>
      </trkpt>
      <trkpt lat="46.79116" lon="-0.97485">
        <ele>108</ele>
        <time>2009-12-31T11:12:28Z</time>
      </trkpt>
      <trkpt lat="46.78939" lon="-0.98045">
        <ele>105</ele>
        <time>2009-12-31T11:13:36Z</time>
      </trkpt>
      <trkpt lat="46.78926" lon="-0.98108">
        <ele>105</ele>
        <time>2009-12-31T11:13:43Z</time>
      </trkpt>
      <trkpt lat="46.78907" lon="-0.98268">
        <ele>103</ele>
        <time>2009-12-31T11:14:01Z</time>
      </trkpt>
      <trkpt lat="46.7891" lon="-0.98343">
        <ele>103</ele>
        <time>2009-12-31T11:14:09Z</time>
      </trkpt>
      <trkpt lat="46.7895" lon="-0.9859">
        <ele>105</ele>
        <time>2009-12-31T11:14:37Z</time>
      </trkpt>
      <trkpt lat="46.78975" lon="-0.98774">
        <ele>105</ele>
        <time>2009-12-31T11:14:58Z</time>
      </trkpt>
      <trkpt lat="46.78977" lon="-0.98816">
        <ele>106</ele>
        <time>2009-12-31T11:15:02Z</time>
      </trkpt>
      <trkpt lat="46.78975" lon="-0.98934">
        <ele>104</ele>
        <time>2009-12-31T11:15:15Z</time>
      </trkpt>
      <trkpt lat="46.78964" lon="-0.99097">
        <ele>103</ele>
        <time>2009-12-31T11:15:33Z</time>
      </trkpt>
      <trkpt lat="46.78939" lon="-0.99192">
        <ele>102</ele>
        <time>2009-12-31T11:15:44Z</time>
      </trkpt>
      <trkpt lat="46.78934" lon="-0.99238">
        <ele>101</ele>
        <time>2009-12-31T11:15:49Z</time>
      </trkpt>
      <trkpt lat="46.78937" lon="-0.99341">
        <ele>102</ele>
        <time>2009-12-31T11:16:01Z</time>
      </trkpt>
      <trkpt lat="46.78955" lon="-0.994">
        <ele>103</ele>
        <time>2009-12-31T11:16:08Z</time>
      </trkpt>
      <trkpt lat="46.78956" lon="-0.99413">
        <ele>103</ele>
        <time>2009-12-31T11:16:09Z</time>
      </trkpt>
      <trkpt lat="46.78958" lon="-0.99453">
        <ele>103</ele>
        <time>2009-12-31T11:16:14Z</time>
      </trkpt>
      <trkpt lat="46.78949" lon="-0.99505">
        <ele>103</ele>
        <time>2009-12-31T11:16:20Z</time>
      </trkpt>
      <trkpt lat="46.78941" lon="-0.99502">
        <ele>103</ele>
        <time>2009-12-31T11:16:21Z</time>
      </trkpt>
      <trkpt lat="46.78941" lon="-0.99502">
        <ele>103</ele>
        <time>2009-12-31T11:16:21Z</time>
      </trkpt>
      <trkpt lat="46.78949" lon="-0.99505">
        <ele>103</ele>
        <time>2009-12-31T11:16:22Z</time>
      </trkpt>
      <trkpt lat="46.78913" lon="-0.99579">
        <ele>103</ele>
        <time>2009-12-31T11:16:32Z</time>
      </trkpt>
      <trkpt lat="46.78906" lon="-0.99605">
        <ele>103</ele>
        <time>2009-12-31T11:16:35Z</time>
      </trkpt>
      <trkpt lat="46.78908" lon="-0.99659">
        <ele>103</ele>
        <time>2009-12-31T11:16:41Z</time>
      </trkpt>
      <trkpt lat="46.78947" lon="-0.9979">
        <ele>103</ele>
        <time>2009-12-31T11:16:57Z</time>
      </trkpt>
      <trkpt lat="46.78922" lon="-1.00032">
        <ele>98</ele>
        <time>2009-12-31T11:17:24Z</time>
      </trkpt>
      <trkpt lat="46.78883" lon="-1.00307">
        <ele>96</ele>
        <time>2009-12-31T11:17:54Z</time>
      </trkpt>
      <trkpt lat="46.78849" lon="-1.00385">
        <ele>96</ele>
        <time>2009-12-31T11:18:05Z</time>
      </trkpt>
      <trkpt lat="46.78781" lon="-1.00506">
        <ele>98</ele>
        <time>2009-12-31T11:18:22Z</time>
      </trkpt>
      <trkpt lat="46.78736" lon="-1.00604">
        <ele>98</ele>
        <time>2009-12-31T11:18:35Z</time>
      </trkpt>
      <trkpt lat="46.78701" lon="-1.00651">
        <ele>98</ele>
        <time>2009-12-31T11:18:42Z</time>
      </trkpt>
      <trkpt lat="46.78668" lon="-1.00712">
        <ele>98</ele>
        <time>2009-12-31T11:18:51Z</time>
      </trkpt>
      <trkpt lat="46.78591" lon="-1.00898">
        <ele>99</ele>
        <time>2009-12-31T11:19:15Z</time>
      </trkpt>
      <trkpt lat="46.7856" lon="-1.00962">
        <ele>100</ele>
        <time>2009-12-31T11:19:23Z</time>
      </trkpt>
      <trkpt lat="46.78523" lon="-1.01012">
        <ele>94</ele>
        <time>2009-12-31T11:19:31Z</time>
      </trkpt>
      <trkpt lat="46.78477" lon="-1.01061">
        <ele>96</ele>
        <time>2009-12-31T11:19:40Z</time>
      </trkpt>
      <trkpt lat="46.78449" lon="-1.01108">
        <ele>88</ele>
        <time>2009-12-31T11:19:47Z</time>
      </trkpt>
      <trkpt lat="46.78441" lon="-1.01144">
        <ele>88</ele>
        <time>2009-12-31T11:19:51Z</time>
      </trkpt>
      <trkpt lat="46.78438" lon="-1.01175">
        <ele>88</ele>
        <time>2009-12-31T11:19:55Z</time>
      </trkpt>
      <trkpt lat="46.78441" lon="-1.01312">
        <ele>88</ele>
        <time>2009-12-31T11:20:10Z</time>
      </trkpt>
      <trkpt lat="46.78425" lon="-1.01679">
        <ele>94</ele>
        <time>2009-12-31T11:20:50Z</time>
      </trkpt>
      <trkpt lat="46.78407" lon="-1.01834">
        <ele>98</ele>
        <time>2009-12-31T11:21:07Z</time>
      </trkpt>
      <trkpt lat="46.78405" lon="-1.02">
        <ele>101</ele>
        <time>2009-12-31T11:21:26Z</time>
      </trkpt>
      <trkpt lat="46.78384" lon="-1.02184">
        <ele>101</ele>
        <time>2009-12-31T11:21:46Z</time>
      </trkpt>
      <trkpt lat="46.78384" lon="-1.02198">
        <ele>101</ele>
        <time>2009-12-31T11:21:48Z</time>
      </trkpt>
      <trkpt lat="46.78407" lon="-1.02288">
        <ele>97</ele>
        <time>2009-12-31T11:21:58Z</time>
      </trkpt>
      <trkpt lat="46.7841" lon="-1.02448">
        <ele>92</ele>
        <time>2009-12-31T11:22:16Z</time>
      </trkpt>
      <trkpt lat="46.78404" lon="-1.02489">
        <ele>88</ele>
        <time>2009-12-31T11:22:20Z</time>
      </trkpt>
      <trkpt lat="46.78358" lon="-1.02636">
        <ele>78</ele>
        <time>2009-12-31T11:22:38Z</time>
      </trkpt>
      <trkpt lat="46.78324" lon="-1.02771">
        <ele>73</ele>
        <time>2009-12-31T11:22:54Z</time>
      </trkpt>
      <trkpt lat="46.78312" lon="-1.02841">
        <ele>88</ele>
        <time>2009-12-31T11:23:02Z</time>
      </trkpt>
      <trkpt lat="46.78309" lon="-1.02884">
        <ele>97</ele>
        <time>2009-12-31T11:23:06Z</time>
      </trkpt>
      <trkpt lat="46.78313" lon="-1.02931">
        <ele>97</ele>
        <time>2009-12-31T11:23:12Z</time>
      </trkpt>
      <trkpt lat="46.78369" lon="-1.03175">
        <ele>93</ele>
        <time>2009-12-31T11:23:40Z</time>
      </trkpt>
      <trkpt lat="46.78387" lon="-1.03287">
        <ele>97</ele>
        <time>2009-12-31T11:23:52Z</time>
      </trkpt>
      <trkpt lat="46.78391" lon="-1.03338">
        <ele>94</ele>
        <time>2009-12-31T11:23:58Z</time>
      </trkpt>
      <trkpt lat="46.78386" lon="-1.03552">
        <ele>90</ele>
        <time>2009-12-31T11:24:22Z</time>
      </trkpt>
      <trkpt lat="46.78377" lon="-1.03585">
        <ele>90</ele>
        <time>2009-12-31T11:24:25Z</time>
      </trkpt>
      <trkpt lat="46.78335" lon="-1.03681">
        <ele>80</ele>
        <time>2009-12-31T11:24:38Z</time>
      </trkpt>
      <trkpt lat="46.7831" lon="-1.03775">
        <ele>81</ele>
        <time>2009-12-31T11:24:49Z</time>
      </trkpt>
      <trkpt lat="46.78276" lon="-1.0385">
        <ele>70</ele>
        <time>2009-12-31T11:24:59Z</time>
      </trkpt>
      <trkpt lat="46.78109" lon="-1.04287">
        <ele>74</ele>
        <time>2009-12-31T11:25:54Z</time>
      </trkpt>
      <trkpt lat="46.78049" lon="-1.04454">
        <ele>84</ele>
        <time>2009-12-31T11:26:14Z</time>
      </trkpt>
      <trkpt lat="46.78035" lon="-1.04531">
        <ele>75</ele>
        <time>2009-12-31T11:26:23Z</time>
      </trkpt>
      <trkpt lat="46.78031" lon="-1.04582">
        <ele>80</ele>
        <time>2009-12-31T11:26:29Z</time>
      </trkpt>
      <trkpt lat="46.78012" lon="-1.04933">
        <ele>83</ele>
        <time>2009-12-31T11:27:07Z</time>
      </trkpt>
      <trkpt lat="46.77995" lon="-1.05032">
        <ele>85</ele>
        <time>2009-12-31T11:27:19Z</time>
      </trkpt>
      <trkpt lat="46.77979" lon="-1.05082">
        <ele>87</ele>
        <time>2009-12-31T11:27:25Z</time>
      </trkpt>
      <trkpt lat="46.77968" lon="-1.05104">
        <ele>87</ele>
        <time>2009-12-31T11:27:28Z</time>
      </trkpt>
      <trkpt lat="46.77907" lon="-1.05166">
        <ele>76</ele>
        <time>2009-12-31T11:27:40Z</time>
      </trkpt>
      <trkpt lat="46.77902" lon="-1.05184">
        <ele>76</ele>
        <time>2009-12-31T11:27:42Z</time>
      </trkpt>
      <trkpt lat="46.77903" lon="-1.05215">
        <ele>79</ele>
        <time>2009-12-31T11:27:45Z</time>
      </trkpt>
      <trkpt lat="46.77934" lon="-1.05331">
        <ele>80</ele>
        <time>2009-12-31T11:27:59Z</time>
      </trkpt>
      <trkpt lat="46.77981" lon="-1.05457">
        <ele>83</ele>
        <time>2009-12-31T11:28:14Z</time>
      </trkpt>
      <trkpt lat="46.78004" lon="-1.05582">
        <ele>87</ele>
        <time>2009-12-31T11:28:29Z</time>
      </trkpt>
      <trkpt lat="46.78059" lon="-1.0575">
        <ele>95</ele>
        <time>2009-12-31T11:28:49Z</time>
      </trkpt>
      <trkpt lat="46.7807" lon="-1.05775">
        <ele>95</ele>
        <time>2009-12-31T11:28:52Z</time>
      </trkpt>
      <trkpt lat="46.78094" lon="-1.0581">
        <ele>93</ele>
        <time>2009-12-31T11:28:58Z</time>
      </trkpt>
      <trkpt lat="46.78112" lon="-1.05823">
        <ele>93</ele>
        <time>2009-12-31T11:29:01Z</time>
      </trkpt>
      <trkpt lat="46.78154" lon="-1.05837">
        <ele>97</ele>
        <time>2009-12-31T11:29:08Z</time>
      </trkpt>
      <trkpt lat="46.78154" lon="-1.05837">
        <ele>97</ele>
        <time>2009-12-31T11:29:08Z</time>
      </trkpt>
      <trkpt lat="46.78162" lon="-1.05841">
        <ele>97</ele>
        <time>2009-12-31T11:29:09Z</time>
      </trkpt>
      <trkpt lat="46.78166" lon="-1.05851">
        <ele>97</ele>
        <time>2009-12-31T11:29:10Z</time>
      </trkpt>
      <trkpt lat="46.78166" lon="-1.05865">
        <ele>97</ele>
        <time>2009-12-31T11:29:12Z</time>
      </trkpt>
      <trkpt lat="46.78161" lon="-1.05877">
        <ele>97</ele>
        <time>2009-12-31T11:29:14Z</time>
      </trkpt>
      <trkpt lat="46.78117" lon="-1.0591">
        <ele>85</ele>
        <time>2009-12-31T11:29:21Z</time>
      </trkpt>
      <trkpt lat="46.78104" lon="-1.0593">
        <ele>85</ele>
        <time>2009-12-31T11:29:24Z</time>
      </trkpt>
      <trkpt lat="46.78095" lon="-1.06015">
        <ele>89</ele>
        <time>2009-12-31T11:29:34Z</time>
      </trkpt>
      <trkpt lat="46.78048" lon="-1.06087">
        <ele>96</ele>
        <time>2009-12-31T11:29:45Z</time>
      </trkpt>
      <trkpt lat="46.78044" lon="-1.06107">
        <ele>96</ele>
        <time>2009-12-31T11:29:47Z</time>
      </trkpt>
      <trkpt lat="46.78044" lon="-1.06214">
        <ele>100</ele>
        <time>2009-12-31T11:29:59Z</time>
      </trkpt>
      <trkpt lat="46.78022" lon="-1.0624">
        <ele>96</ele>
        <time>2009-12-31T11:30:03Z</time>
      </trkpt>
      <trkpt lat="46.77956" lon="-1.06273">
        <ele>91</ele>
        <time>2009-12-31T11:30:15Z</time>
      </trkpt>
      <trkpt lat="46.77904" lon="-1.0626">
        <ele>91</ele>
        <time>2009-12-31T11:30:23Z</time>
      </trkpt>
      <trkpt lat="46.77878" lon="-1.06267">
        <ele>91</ele>
        <time>2009-12-31T11:30:27Z</time>
      </trkpt>
      <trkpt lat="46.77849" lon="-1.06298">
        <ele>95</ele>
        <time>2009-12-31T11:30:33Z</time>
      </trkpt>
      <trkpt lat="46.77799" lon="-1.06382">
        <ele>97</ele>
        <time>2009-12-31T11:30:45Z</time>
      </trkpt>
      <trkpt lat="46.7775" lon="-1.06436">
        <ele>94</ele>
        <time>2009-12-31T11:30:55Z</time>
      </trkpt>
      <trkpt lat="46.77753" lon="-1.06449">
        <ele>94</ele>
        <time>2009-12-31T11:30:57Z</time>
      </trkpt>
      <trkpt lat="46.77745" lon="-1.06472">
        <ele>96</ele>
        <time>2009-12-31T11:30:59Z</time>
      </trkpt>
      <trkpt lat="46.7773" lon="-1.06476">
        <ele>96</ele>
        <time>2009-12-31T11:31:02Z</time>
      </trkpt>
      <trkpt lat="46.77721" lon="-1.06468">
        <ele>96</ele>
        <time>2009-12-31T11:31:03Z</time>
      </trkpt>
      <trkpt lat="46.77636" lon="-1.06567">
        <ele>94</ele>
        <time>2009-12-31T11:31:21Z</time>
      </trkpt>
      <trkpt lat="46.77636" lon="-1.06567">
        <ele>94</ele>
        <time>2009-12-31T11:31:21Z</time>
      </trkpt>
      <trkpt lat="46.77443" lon="-1.0678">
        <ele>86</ele>
        <time>2009-12-31T11:32:00Z</time>
      </trkpt>
      <trkpt lat="46.7741" lon="-1.06822">
        <ele>85</ele>
        <time>2009-12-31T11:32:07Z</time>
      </trkpt>
      <trkpt lat="46.77264" lon="-1.07053">
        <ele>82</ele>
        <time>2009-12-31T11:32:41Z</time>
      </trkpt>
      <trkpt lat="46.77177" lon="-1.07412">
        <ele>75</ele>
        <time>2009-12-31T11:33:23Z</time>
      </trkpt>
      <trkpt lat="46.771" lon="-1.07582">
        <ele>70</ele>
        <time>2009-12-31T11:33:45Z</time>
      </trkpt>
      <trkpt lat="46.77054" lon="-1.07638">
        <ele>71</ele>
        <time>2009-12-31T11:33:55Z</time>
      </trkpt>
      <trkpt lat="46.7679" lon="-1.07889">
        <ele>62</ele>
        <time>2009-12-31T11:34:45Z</time>
      </trkpt>
      <trkpt lat="46.76731" lon="-1.07962">
        <ele>63</ele>
        <time>2009-12-31T11:34:58Z</time>
      </trkpt>
      <trkpt lat="46.76678" lon="-1.0804">
        <ele>64</ele>
        <time>2009-12-31T11:35:10Z</time>
      </trkpt>
      <trkpt lat="46.76479" lon="-1.08393">
        <ele>84</ele>
        <time>2009-12-31T11:36:00Z</time>
      </trkpt>
      <trkpt lat="46.76379" lon="-1.08555">
        <ele>84</ele>
        <time>2009-12-31T11:36:24Z</time>
      </trkpt>
      <trkpt lat="46.7614" lon="-1.08773">
        <ele>72</ele>
        <time>2009-12-31T11:37:09Z</time>
      </trkpt>
      <trkpt lat="46.76066" lon="-1.08847">
        <ele>75</ele>
        <time>2009-12-31T11:37:23Z</time>
      </trkpt>
      <trkpt lat="46.75997" lon="-1.08936">
        <ele>80</ele>
        <time>2009-12-31T11:37:38Z</time>
      </trkpt>
      <trkpt lat="46.75754" lon="-1.0929">
        <ele>67</ele>
        <time>2009-12-31T11:38:33Z</time>
      </trkpt>
      <trkpt lat="46.7569" lon="-1.09381">
        <ele>69</ele>
        <time>2009-12-31T11:38:47Z</time>
      </trkpt>
      <trkpt lat="46.75666" lon="-1.09409">
        <ele>69</ele>
        <time>2009-12-31T11:38:52Z</time>
      </trkpt>
      <trkpt lat="46.75643" lon="-1.09426">
        <ele>69</ele>
        <time>2009-12-31T11:38:56Z</time>
      </trkpt>
      <trkpt lat="46.75599" lon="-1.09445">
        <ele>66</ele>
        <time>2009-12-31T11:39:04Z</time>
      </trkpt>
      <trkpt lat="46.75318" lon="-1.09516">
        <ele>73</ele>
        <time>2009-12-31T11:39:49Z</time>
      </trkpt>
      <trkpt lat="46.75223" lon="-1.09546">
        <ele>68</ele>
        <time>2009-12-31T11:40:05Z</time>
      </trkpt>
      <trkpt lat="46.752" lon="-1.0957">
        <ele>62</ele>
        <time>2009-12-31T11:40:09Z</time>
      </trkpt>
      <trkpt lat="46.75159" lon="-1.09589">
        <ele>62</ele>
        <time>2009-12-31T11:40:16Z</time>
      </trkpt>
      <trkpt lat="46.75058" lon="-1.0972">
        <ele>61</ele>
        <time>2009-12-31T11:40:38Z</time>
      </trkpt>
      <trkpt lat="46.75038" lon="-1.09761">
        <ele>58</ele>
        <time>2009-12-31T11:40:43Z</time>
      </trkpt>
      <trkpt lat="46.75026" lon="-1.09826">
        <ele>57</ele>
        <time>2009-12-31T11:40:51Z</time>
      </trkpt>
      <trkpt lat="46.74951" lon="-1.10623">
        <ele>57</ele>
        <time>2009-12-31T11:42:19Z</time>
      </trkpt>
      <trkpt lat="46.74951" lon="-1.10657">
        <ele>58</ele>
        <time>2009-12-31T11:42:23Z</time>
      </trkpt>
      <trkpt lat="46.74957" lon="-1.10691">
        <ele>58</ele>
        <time>2009-12-31T11:42:27Z</time>
      </trkpt>
      <trkpt lat="46.75008" lon="-1.10798">
        <ele>59</ele>
        <time>2009-12-31T11:42:41Z</time>
      </trkpt>
      <trkpt lat="46.75018" lon="-1.10839">
        <ele>59</ele>
        <time>2009-12-31T11:42:46Z</time>
      </trkpt>
      <trkpt lat="46.75018" lon="-1.1108">
        <ele>59</ele>
        <time>2009-12-31T11:43:12Z</time>
      </trkpt>
      <trkpt lat="46.75013" lon="-1.1117">
        <ele>62</ele>
        <time>2009-12-31T11:43:22Z</time>
      </trkpt>
      <trkpt lat="46.75007" lon="-1.11208">
        <ele>62</ele>
        <time>2009-12-31T11:43:26Z</time>
      </trkpt>
      <trkpt lat="46.74989" lon="-1.11273">
        <ele>61</ele>
        <time>2009-12-31T11:43:34Z</time>
      </trkpt>
      <trkpt lat="46.74958" lon="-1.11338">
        <ele>58</ele>
        <time>2009-12-31T11:43:43Z</time>
      </trkpt>
      <trkpt lat="46.74939" lon="-1.11366">
        <ele>58</ele>
        <time>2009-12-31T11:43:47Z</time>
      </trkpt>
      <trkpt lat="46.74858" lon="-1.11454">
        <ele>50</ele>
        <time>2009-12-31T11:44:03Z</time>
      </trkpt>
      <trkpt lat="46.74674" lon="-1.1143">
        <ele>48</ele>
        <time>2009-12-31T11:44:33Z</time>
      </trkpt>
      <trkpt lat="46.74674" lon="-1.1143">
        <ele>48</ele>
        <time>2009-12-31T11:44:33Z</time>
      </trkpt>
      <trkpt lat="46.74668" lon="-1.11429">
        <ele>48</ele>
        <time>2009-12-31T11:44:34Z</time>
      </trkpt>
      <trkpt lat="46.74788" lon="-1.12029">
        <ele>50</ele>
        <time>2009-12-31T11:45:42Z</time>
      </trkpt>
      <trkpt lat="46.74789" lon="-1.12153">
        <ele>55</ele>
        <time>2009-12-31T11:45:56Z</time>
      </trkpt>
      <trkpt lat="46.74767" lon="-1.13173">
        <ele>56</ele>
        <time>2009-12-31T11:47:48Z</time>
      </trkpt>
      <trkpt lat="46.74779" lon="-1.13259">
        <ele>55</ele>
        <time>2009-12-31T11:47:58Z</time>
      </trkpt>
      <trkpt lat="46.74884" lon="-1.13814">
        <ele>65</ele>
        <time>2009-12-31T11:49:01Z</time>
      </trkpt>
      <trkpt lat="46.7494" lon="-1.14497">
        <ele>62</ele>
        <time>2009-12-31T11:50:16Z</time>
      </trkpt>
      <trkpt lat="46.7494" lon="-1.14497">
        <ele>62</ele>
        <time>2009-12-31T11:50:16Z</time>
      </trkpt>
      <trkpt lat="46.75017" lon="-1.15477">
        <ele>76</ele>
        <time>2009-12-31T11:52:04Z</time>
      </trkpt>
      <trkpt lat="46.75022" lon="-1.1551">
        <ele>76</ele>
        <time>2009-12-31T11:52:08Z</time>
      </trkpt>
      <trkpt lat="46.75022" lon="-1.1551">
        <ele>76</ele>
        <time>2009-12-31T11:52:08Z</time>
      </trkpt>
      <trkpt lat="46.75024" lon="-1.15524">
        <ele>76</ele>
        <time>2009-12-31T11:52:10Z</time>
      </trkpt>
      <trkpt lat="46.75424" lon="-1.15288">
        <ele>81</ele>
        <time>2009-12-31T11:53:19Z</time>
      </trkpt>
      <trkpt lat="46.75475" lon="-1.1525">
        <ele>80</ele>
        <time>2009-12-31T11:53:28Z</time>
      </trkpt>
      <trkpt lat="46.75514" lon="-1.15212">
        <ele>80</ele>
        <time>2009-12-31T11:53:35Z</time>
      </trkpt>
      <trkpt lat="46.7559" lon="-1.15151">
        <ele>81</ele>
        <time>2009-12-31T11:53:49Z</time>
      </trkpt>
      <trkpt lat="46.75636" lon="-1.1512">
        <ele>82</ele>
        <time>2009-12-31T11:53:57Z</time>
      </trkpt>
      <trkpt lat="46.75665" lon="-1.15108">
        <ele>82</ele>
        <time>2009-12-31T11:54:02Z</time>
      </trkpt>
      <trkpt lat="46.75698" lon="-1.15103">
        <ele>82</ele>
        <time>2009-12-31T11:54:08Z</time>
      </trkpt>
      <trkpt lat="46.75731" lon="-1.15107">
        <ele>77</ele>
        <time>2009-12-31T11:54:13Z</time>
      </trkpt>
      <trkpt lat="46.75806" lon="-1.15136">
        <ele>74</ele>
        <time>2009-12-31T11:54:25Z</time>
      </trkpt>
      <trkpt lat="46.75913" lon="-1.15206">
        <ele>73</ele>
        <time>2009-12-31T11:54:44Z</time>
      </trkpt>
      <trkpt lat="46.75946" lon="-1.15248">
        <ele>72</ele>
        <time>2009-12-31T11:54:51Z</time>
      </trkpt>
      <trkpt lat="46.75984" lon="-1.15309">
        <ele>74</ele>
        <time>2009-12-31T11:55:00Z</time>
      </trkpt>
      <trkpt lat="46.76013" lon="-1.15388">
        <ele>72</ele>
        <time>2009-12-31T11:55:10Z</time>
      </trkpt>
      <trkpt lat="46.76022" lon="-1.15428">
        <ele>72</ele>
        <time>2009-12-31T11:55:15Z</time>
      </trkpt>
      <trkpt lat="46.76035" lon="-1.15536">
        <ele>71</ele>
        <time>2009-12-31T11:55:27Z</time>
      </trkpt>
      <trkpt lat="46.76032" lon="-1.15605">
        <ele>72</ele>
        <time>2009-12-31T11:55:34Z</time>
      </trkpt>
      <trkpt lat="46.76014" lon="-1.15781">
        <ele>70</ele>
        <time>2009-12-31T11:55:54Z</time>
      </trkpt>
      <trkpt lat="46.76015" lon="-1.15809">
        <ele>69</ele>
        <time>2009-12-31T11:55:57Z</time>
      </trkpt>
      <trkpt lat="46.76024" lon="-1.15851">
        <ele>69</ele>
        <time>2009-12-31T11:56:02Z</time>
      </trkpt>
      <trkpt lat="46.76032" lon="-1.15871">
        <ele>69</ele>
        <time>2009-12-31T11:56:04Z</time>
      </trkpt>
      <trkpt lat="46.76073" lon="-1.15931">
        <ele>68</ele>
        <time>2009-12-31T11:56:13Z</time>
      </trkpt>
      <trkpt lat="46.76108" lon="-1.15955">
        <ele>68</ele>
        <time>2009-12-31T11:56:20Z</time>
      </trkpt>
      <trkpt lat="46.76121" lon="-1.15958">
        <ele>68</ele>
        <time>2009-12-31T11:56:22Z</time>
      </trkpt>
      <trkpt lat="46.76164" lon="-1.15958">
        <ele>68</ele>
        <time>2009-12-31T11:56:29Z</time>
      </trkpt>
      <trkpt lat="46.76292" lon="-1.15938">
        <ele>64</ele>
        <time>2009-12-31T11:56:49Z</time>
      </trkpt>
      <trkpt lat="46.76329" lon="-1.15956">
        <ele>64</ele>
        <time>2009-12-31T11:56:56Z</time>
      </trkpt>
      <trkpt lat="46.76392" lon="-1.15997">
        <ele>70</ele>
        <time>2009-12-31T11:57:07Z</time>
      </trkpt>
      <trkpt lat="46.76444" lon="-1.16007">
        <ele>70</ele>
        <time>2009-12-31T11:57:15Z</time>
      </trkpt>
      <trkpt lat="46.76766" lon="-1.16022">
        <ele>83</ele>
        <time>2009-12-31T11:58:07Z</time>
      </trkpt>
      <trkpt lat="46.76796" lon="-1.16021">
        <ele>86</ele>
        <time>2009-12-31T11:58:11Z</time>
      </trkpt>
      <trkpt lat="46.76813" lon="-1.16012">
        <ele>86</ele>
        <time>2009-12-31T11:58:14Z</time>
      </trkpt>
      <trkpt lat="46.76832" lon="-1.15991">
        <ele>86</ele>
        <time>2009-12-31T11:58:18Z</time>
      </trkpt>
      <trkpt lat="46.7695" lon="-1.15827">
        <ele>88</ele>
        <time>2009-12-31T11:58:44Z</time>
      </trkpt>
      <trkpt lat="46.76992" lon="-1.15783">
        <ele>90</ele>
        <time>2009-12-31T11:58:52Z</time>
      </trkpt>
      <trkpt lat="46.77006" lon="-1.15776">
        <ele>90</ele>
        <time>2009-12-31T11:58:55Z</time>
      </trkpt>
      <trkpt lat="46.77791" lon="-1.15545">
        <ele>87</ele>
        <time>2009-12-31T12:01:03Z</time>
      </trkpt>
      <trkpt lat="46.77814" lon="-1.15545">
        <ele>86</ele>
        <time>2009-12-31T12:01:07Z</time>
      </trkpt>
      <trkpt lat="46.77924" lon="-1.15578">
        <ele>86</ele>
        <time>2009-12-31T12:01:25Z</time>
      </trkpt>
      <trkpt lat="46.77954" lon="-1.15581">
        <ele>86</ele>
        <time>2009-12-31T12:01:30Z</time>
      </trkpt>
      <trkpt lat="46.78254" lon="-1.15488">
        <ele>79</ele>
        <time>2009-12-31T12:02:19Z</time>
      </trkpt>
      <trkpt lat="46.78291" lon="-1.15462">
        <ele>79</ele>
        <time>2009-12-31T12:02:25Z</time>
      </trkpt>
      <trkpt lat="46.78316" lon="-1.15426">
        <ele>85</ele>
        <time>2009-12-31T12:02:31Z</time>
      </trkpt>
      <trkpt lat="46.78526" lon="-1.14935">
        <ele>85</ele>
        <time>2009-12-31T12:03:34Z</time>
      </trkpt>
      <trkpt lat="46.7854" lon="-1.14895">
        <ele>85</ele>
        <time>2009-12-31T12:03:39Z</time>
      </trkpt>
      <trkpt lat="46.78608" lon="-1.14465">
        <ele>92</ele>
        <time>2009-12-31T12:04:28Z</time>
      </trkpt>
      <trkpt lat="46.78624" lon="-1.14407">
        <ele>95</ele>
        <time>2009-12-31T12:04:34Z</time>
      </trkpt>
      <trkpt lat="46.78639" lon="-1.14371">
        <ele>98</ele>
        <time>2009-12-31T12:04:39Z</time>
      </trkpt>
      <trkpt lat="46.78654" lon="-1.14344">
        <ele>98</ele>
        <time>2009-12-31T12:04:43Z</time>
      </trkpt>
      <trkpt lat="46.78676" lon="-1.14318">
        <ele>98</ele>
        <time>2009-12-31T12:04:47Z</time>
      </trkpt>
      <trkpt lat="46.78936" lon="-1.14095">
        <ele>99</ele>
        <time>2009-12-31T12:05:36Z</time>
      </trkpt>
      <trkpt lat="46.78967" lon="-1.14051">
        <ele>100</ele>
        <time>2009-12-31T12:05:43Z</time>
      </trkpt>
      <trkpt lat="46.78998" lon="-1.14019">
        <ele>100</ele>
        <time>2009-12-31T12:05:49Z</time>
      </trkpt>
      <trkpt lat="46.79051" lon="-1.1399">
        <ele>97</ele>
        <time>2009-12-31T12:05:58Z</time>
      </trkpt>
      <trkpt lat="46.79086" lon="-1.13957">
        <ele>97</ele>
        <time>2009-12-31T12:06:04Z</time>
      </trkpt>
      <trkpt lat="46.79109" lon="-1.13907">
        <ele>97</ele>
        <time>2009-12-31T12:06:11Z</time>
      </trkpt>
      <trkpt lat="46.79119" lon="-1.13865">
        <ele>95</ele>
        <time>2009-12-31T12:06:16Z</time>
      </trkpt>
      <trkpt lat="46.79129" lon="-1.13792">
        <ele>92</ele>
        <time>2009-12-31T12:06:24Z</time>
      </trkpt>
      <trkpt lat="46.79138" lon="-1.1376">
        <ele>89</ele>
        <time>2009-12-31T12:06:28Z</time>
      </trkpt>
      <trkpt lat="46.79176" lon="-1.13689">
        <ele>88</ele>
        <time>2009-12-31T12:06:38Z</time>
      </trkpt>
      <trkpt lat="46.7923" lon="-1.13624">
        <ele>87</ele>
        <time>2009-12-31T12:06:49Z</time>
      </trkpt>
      <trkpt lat="46.7923" lon="-1.13625">
        <ele>87</ele>
        <time>2009-12-31T12:06:49Z</time>
      </trkpt>
      <trkpt lat="46.7926" lon="-1.13586">
        <ele>87</ele>
        <time>2009-12-31T12:06:55Z</time>
      </trkpt>
      <trkpt lat="46.7929" lon="-1.13537">
        <ele>87</ele>
        <time>2009-12-31T12:07:03Z</time>
      </trkpt>
      <trkpt lat="46.79305" lon="-1.13521">
        <ele>91</ele>
        <time>2009-12-31T12:07:06Z</time>
      </trkpt>
      <trkpt lat="46.79454" lon="-1.13463">
        <ele>94</ele>
        <time>2009-12-31T12:07:30Z</time>
      </trkpt>
      <trkpt lat="46.79725" lon="-1.13234">
        <ele>104</ele>
        <time>2009-12-31T12:08:20Z</time>
      </trkpt>
      <trkpt lat="46.7979" lon="-1.13193">
        <ele>105</ele>
        <time>2009-12-31T12:08:32Z</time>
      </trkpt>
      <trkpt lat="46.79781" lon="-1.13116">
        <ele>106</ele>
        <time>2009-12-31T12:08:40Z</time>
      </trkpt>
      <trkpt lat="46.79783" lon="-1.13072">
        <ele>106</ele>
        <time>2009-12-31T12:08:45Z</time>
      </trkpt>
      <trkpt lat="46.7978" lon="-1.13015">
        <ele>105</ele>
        <time>2009-12-31T12:08:51Z</time>
      </trkpt>
      <trkpt lat="46.79773" lon="-1.12948">
        <ele>105</ele>
        <time>2009-12-31T12:08:59Z</time>
      </trkpt>
      <trkpt lat="46.79761" lon="-1.12887">
        <ele>105</ele>
        <time>2009-12-31T12:09:06Z</time>
      </trkpt>
      <trkpt lat="46.79765" lon="-1.12862">
        <ele>104</ele>
        <time>2009-12-31T12:09:09Z</time>
      </trkpt>
      <trkpt lat="46.79775" lon="-1.12868">
        <ele>104</ele>
        <time>2009-12-31T12:09:10Z</time>
      </trkpt>
      <trkpt lat="46.79775" lon="-1.12868">
        <ele>104</ele>
        <time>2009-12-31T12:09:10Z</time>
      </trkpt>
      <trkpt lat="46.79765" lon="-1.12862">
        <ele>104</ele>
        <time>2009-12-31T12:09:12Z</time>
      </trkpt>
      <trkpt lat="46.79764" lon="-1.12808">
        <ele>104</ele>
        <time>2009-12-31T12:09:18Z</time>
      </trkpt>
      <trkpt lat="46.79758" lon="-1.12748">
        <ele>101</ele>
        <time>2009-12-31T12:09:25Z</time>
      </trkpt>
      <trkpt lat="46.79631" lon="-1.11969">
        <ele>103</ele>
        <time>2009-12-31T12:10:52Z</time>
      </trkpt>
      <trkpt lat="46.79939" lon="-1.11892">
        <ele>95</ele>
        <time>2009-12-31T12:11:43Z</time>
      </trkpt>
      <trkpt lat="46.79952" lon="-1.11882">
        <ele>95</ele>
        <time>2009-12-31T12:11:45Z</time>
      </trkpt>
      <trkpt lat="46.79985" lon="-1.11822">
        <ele>91</ele>
        <time>2009-12-31T12:11:53Z</time>
      </trkpt>
      <trkpt lat="46.79997" lon="-1.11814">
        <ele>91</ele>
        <time>2009-12-31T12:11:55Z</time>
      </trkpt>
      <trkpt lat="46.80025" lon="-1.11778">
        <ele>90</ele>
        <time>2009-12-31T12:12:01Z</time>
      </trkpt>
      <trkpt lat="46.80038" lon="-1.1177">
        <ele>90</ele>
        <time>2009-12-31T12:12:04Z</time>
      </trkpt>
      <trkpt lat="46.8015" lon="-1.1174">
        <ele>93</ele>
        <time>2009-12-31T12:12:22Z</time>
      </trkpt>
      <trkpt lat="46.80271" lon="-1.11721">
        <ele>94</ele>
        <time>2009-12-31T12:12:41Z</time>
      </trkpt>
      <trkpt lat="46.80278" lon="-1.11716">
        <ele>94</ele>
        <time>2009-12-31T12:12:43Z</time>
      </trkpt>
      <trkpt lat="46.80292" lon="-1.11689">
        <ele>95</ele>
        <time>2009-12-31T12:12:46Z</time>
      </trkpt>
      <trkpt lat="46.80299" lon="-1.11633">
        <ele>95</ele>
        <time>2009-12-31T12:12:53Z</time>
      </trkpt>
      <trkpt lat="46.8031" lon="-1.11616">
        <ele>95</ele>
        <time>2009-12-31T12:12:55Z</time>
      </trkpt>
      <trkpt lat="46.80341" lon="-1.11586">
        <ele>95</ele>
        <time>2009-12-31T12:13:01Z</time>
      </trkpt>
      <trkpt lat="46.80348" lon="-1.11572">
        <ele>95</ele>
        <time>2009-12-31T12:13:03Z</time>
      </trkpt>
      <trkpt lat="46.80354" lon="-1.11537">
        <ele>94</ele>
        <time>2009-12-31T12:13:07Z</time>
      </trkpt>
      <trkpt lat="46.80358" lon="-1.11474">
        <ele>94</ele>
        <time>2009-12-31T12:13:14Z</time>
      </trkpt>
      <trkpt lat="46.80395" lon="-1.11415">
        <ele>91</ele>
        <time>2009-12-31T12:13:23Z</time>
      </trkpt>
      <trkpt lat="46.80401" lon="-1.11292">
        <ele>90</ele>
        <time>2009-12-31T12:13:36Z</time>
      </trkpt>
      <trkpt lat="46.80458" lon="-1.11363">
        <ele>90</ele>
        <time>2009-12-31T12:13:48Z</time>
      </trkpt>
      <trkpt lat="46.80474" lon="-1.11372">
        <ele>90</ele>
        <time>2009-12-31T12:13:51Z</time>
      </trkpt>
      <trkpt lat="46.80525" lon="-1.11363">
        <ele>90</ele>
        <time>2009-12-31T12:13:59Z</time>
      </trkpt>
      <trkpt lat="46.80563" lon="-1.11339">
        <ele>92</ele>
        <time>2009-12-31T12:14:06Z</time>
      </trkpt>
      <trkpt lat="46.80639" lon="-1.11323">
        <ele>95</ele>
        <time>2009-12-31T12:14:18Z</time>
      </trkpt>
      <trkpt lat="46.80694" lon="-1.11277">
        <ele>97</ele>
        <time>2009-12-31T12:14:28Z</time>
      </trkpt>
      <trkpt lat="46.80713" lon="-1.11255">
        <ele>98</ele>
        <time>2009-12-31T12:14:32Z</time>
      </trkpt>
      <trkpt lat="46.80788" lon="-1.1112">
        <ele>97</ele>
        <time>2009-12-31T12:14:51Z</time>
      </trkpt>
      <trkpt lat="46.80826" lon="-1.11144">
        <ele>98</ele>
        <time>2009-12-31T12:14:58Z</time>
      </trkpt>
      <trkpt lat="46.80879" lon="-1.11159">
        <ele>100</ele>
        <time>2009-12-31T12:15:06Z</time>
      </trkpt>
      <trkpt lat="46.81031" lon="-1.11222">
        <ele>101</ele>
        <time>2009-12-31T12:15:32Z</time>
      </trkpt>
      <trkpt lat="46.81049" lon="-1.11221">
        <ele>102</ele>
        <time>2009-12-31T12:15:35Z</time>
      </trkpt>
      <trkpt lat="46.81129" lon="-1.11188">
        <ele>102</ele>
        <time>2009-12-31T12:15:48Z</time>
      </trkpt>
      <trkpt lat="46.81157" lon="-1.11182">
        <ele>102</ele>
        <time>2009-12-31T12:15:52Z</time>
      </trkpt>
      <trkpt lat="46.81133" lon="-1.11154">
        <ele>102</ele>
        <time>2009-12-31T12:15:57Z</time>
      </trkpt>
      <trkpt lat="46.81133" lon="-1.11154">
        <ele>102</ele>
        <time>2009-12-31T12:15:57Z</time>
      </trkpt>
      <trkpt lat="46.81157" lon="-1.11182">
        <ele>102</ele>
        <time>2009-12-31T12:16:02Z</time>
      </trkpt>
      <trkpt lat="46.81204" lon="-1.11189">
        <ele>102</ele>
        <time>2009-12-31T12:16:10Z</time>
      </trkpt>
      <trkpt lat="46.81408" lon="-1.113">
        <ele>106</ele>
        <time>2009-12-31T12:16:45Z</time>
      </trkpt>
      <trkpt lat="46.81599" lon="-1.11385">
        <ele>103</ele>
        <time>2009-12-31T12:17:17Z</time>
      </trkpt>
      <trkpt lat="46.81761" lon="-1.11486">
        <ele>98</ele>
        <time>2009-12-31T12:17:45Z</time>
      </trkpt>
      <trkpt lat="46.81906" lon="-1.11552">
        <ele>96</ele>
        <time>2009-12-31T12:18:09Z</time>
      </trkpt>
      <trkpt lat="46.81991" lon="-1.11609">
        <ele>95</ele>
        <time>2009-12-31T12:18:24Z</time>
      </trkpt>
      <trkpt lat="46.82105" lon="-1.11695">
        <ele>95</ele>
        <time>2009-12-31T12:18:45Z</time>
      </trkpt>
      <trkpt lat="46.82199" lon="-1.11781">
        <ele>94</ele>
        <time>2009-12-31T12:19:02Z</time>
      </trkpt>
      <trkpt lat="46.82273" lon="-1.11828">
        <ele>92</ele>
        <time>2009-12-31T12:19:15Z</time>
      </trkpt>
      <trkpt lat="46.82322" lon="-1.11889">
        <ele>90</ele>
        <time>2009-12-31T12:19:26Z</time>
      </trkpt>
      <trkpt lat="46.82487" lon="-1.12128">
        <ele>87</ele>
        <time>2009-12-31T12:20:03Z</time>
      </trkpt>
      <trkpt lat="46.8252" lon="-1.12176">
        <ele>87</ele>
        <time>2009-12-31T12:20:10Z</time>
      </trkpt>
      <trkpt lat="46.8252" lon="-1.12176">
        <ele>87</ele>
        <time>2009-12-31T12:20:10Z</time>
      </trkpt>
      <trkpt lat="46.82577" lon="-1.12255">
        <ele>84</ele>
        <time>2009-12-31T12:20:23Z</time>
      </trkpt>
      <trkpt lat="46.82663" lon="-1.12434">
        <ele>84</ele>
        <time>2009-12-31T12:20:47Z</time>
      </trkpt>
      <trkpt lat="46.82686" lon="-1.12476">
        <ele>82</ele>
        <time>2009-12-31T12:20:53Z</time>
      </trkpt>
      <trkpt lat="46.82695" lon="-1.12485">
        <ele>82</ele>
        <time>2009-12-31T12:20:55Z</time>
      </trkpt>
      <trkpt lat="46.82716" lon="-1.12484">
        <ele>83</ele>
        <time>2009-12-31T12:20:58Z</time>
      </trkpt>
      <trkpt lat="46.82832" lon="-1.12423">
        <ele>88</ele>
        <time>2009-12-31T12:21:18Z</time>
      </trkpt>
      <trkpt lat="46.83105" lon="-1.12154">
        <ele>96</ele>
        <time>2009-12-31T12:22:10Z</time>
      </trkpt>
      <trkpt lat="46.83148" lon="-1.12106">
        <ele>98</ele>
        <time>2009-12-31T12:22:19Z</time>
      </trkpt>
      <trkpt lat="46.83266" lon="-1.12024">
        <ele>99</ele>
        <time>2009-12-31T12:22:40Z</time>
      </trkpt>
      <trkpt lat="46.83322" lon="-1.11974">
        <ele>98</ele>
        <time>2009-12-31T12:22:50Z</time>
      </trkpt>
      <trkpt lat="46.83392" lon="-1.11845">
        <ele>95</ele>
        <time>2009-12-31T12:23:08Z</time>
      </trkpt>
      <trkpt lat="46.83504" lon="-1.11586">
        <ele>94</ele>
        <time>2009-12-31T12:23:42Z</time>
      </trkpt>
      <trkpt lat="46.83504" lon="-1.11586">
        <ele>94</ele>
        <time>2009-12-31T12:23:42Z</time>
      </trkpt>
      <trkpt lat="46.83548" lon="-1.11483">
        <ele>94</ele>
        <time>2009-12-31T12:23:55Z</time>
      </trkpt>
      <trkpt lat="46.83596" lon="-1.11399">
        <ele>93</ele>
        <time>2009-12-31T12:24:07Z</time>
      </trkpt>
      <trkpt lat="46.83779" lon="-1.11167">
        <ele>91</ele>
        <time>2009-12-31T12:24:46Z</time>
      </trkpt>
      <trkpt lat="46.8394" lon="-1.10971">
        <ele>95</ele>
        <time>2009-12-31T12:25:20Z</time>
      </trkpt>
      <trkpt lat="46.84022" lon="-1.10886">
        <ele>97</ele>
        <time>2009-12-31T12:25:36Z</time>
      </trkpt>
      <trkpt lat="46.84163" lon="-1.10767">
        <ele>100</ele>
        <time>2009-12-31T12:26:02Z</time>
      </trkpt>
      <trkpt lat="46.84266" lon="-1.10668">
        <ele>98</ele>
        <time>2009-12-31T12:26:22Z</time>
      </trkpt>
      <trkpt lat="46.84397" lon="-1.10555">
        <ele>95</ele>
        <time>2009-12-31T12:26:46Z</time>
      </trkpt>
      <trkpt lat="46.84494" lon="-1.1048">
        <ele>96</ele>
        <time>2009-12-31T12:27:03Z</time>
      </trkpt>
      <trkpt lat="46.84565" lon="-1.10449">
        <ele>97</ele>
        <time>2009-12-31T12:27:15Z</time>
      </trkpt>
      <trkpt lat="46.8479" lon="-1.10383">
        <ele>100</ele>
        <time>2009-12-31T12:27:52Z</time>
      </trkpt>
      <trkpt lat="46.84816" lon="-1.10366">
        <ele>102</ele>
        <time>2009-12-31T12:27:57Z</time>
      </trkpt>
      <trkpt lat="46.84882" lon="-1.10337">
        <ele>104</ele>
        <time>2009-12-31T12:28:08Z</time>
      </trkpt>
      <trkpt lat="46.84987" lon="-1.10304">
        <ele>104</ele>
        <time>2009-12-31T12:28:25Z</time>
      </trkpt>
      <trkpt lat="46.85012" lon="-1.10299">
        <ele>104</ele>
        <time>2009-12-31T12:28:29Z</time>
      </trkpt>
      <trkpt lat="46.85488" lon="-1.1027">
        <ele>100</ele>
        <time>2009-12-31T12:29:45Z</time>
      </trkpt>
      <trkpt lat="46.85529" lon="-1.10259">
        <ele>100</ele>
        <time>2009-12-31T12:29:52Z</time>
      </trkpt>
      <trkpt lat="46.85665" lon="-1.10204">
        <ele>97</ele>
        <time>2009-12-31T12:30:14Z</time>
      </trkpt>
      <trkpt lat="46.8582" lon="-1.10121">
        <ele>94</ele>
        <time>2009-12-31T12:30:41Z</time>
      </trkpt>
      <trkpt lat="46.85836" lon="-1.10107">
        <ele>94</ele>
        <time>2009-12-31T12:30:44Z</time>
      </trkpt>
      <trkpt lat="46.85875" lon="-1.10041">
        <ele>92</ele>
        <time>2009-12-31T12:30:53Z</time>
      </trkpt>
      <trkpt lat="46.85895" lon="-1.10015">
        <ele>91</ele>
        <time>2009-12-31T12:30:58Z</time>
      </trkpt>
      <trkpt lat="46.85918" lon="-1.10002">
        <ele>91</ele>
        <time>2009-12-31T12:31:02Z</time>
      </trkpt>
      <trkpt lat="46.86009" lon="-1.09968">
        <ele>88</ele>
        <time>2009-12-31T12:31:17Z</time>
      </trkpt>
      <trkpt lat="46.86054" lon="-1.09928">
        <ele>84</ele>
        <time>2009-12-31T12:31:25Z</time>
      </trkpt>
      <trkpt lat="46.86052" lon="-1.09923">
        <ele>84</ele>
        <time>2009-12-31T12:31:26Z</time>
      </trkpt>
      <trkpt lat="46.86052" lon="-1.09923">
        <ele>84</ele>
        <time>2009-12-31T12:31:26Z</time>
      </trkpt>
      <trkpt lat="46.86054" lon="-1.09928">
        <ele>84</ele>
        <time>2009-12-31T12:31:26Z</time>
      </trkpt>
      <trkpt lat="46.86157" lon="-1.09819">
        <ele>79</ele>
        <time>2009-12-31T12:31:47Z</time>
      </trkpt>
      <trkpt lat="46.86173" lon="-1.09794">
        <ele>79</ele>
        <time>2009-12-31T12:31:51Z</time>
      </trkpt>
      <trkpt lat="46.86178" lon="-1.09769">
        <ele>78</ele>
        <time>2009-12-31T12:31:53Z</time>
      </trkpt>
      <trkpt lat="46.86177" lon="-1.0972">
        <ele>78</ele>
        <time>2009-12-31T12:31:59Z</time>
      </trkpt>
      <trkpt lat="46.86181" lon="-1.09677">
        <ele>80</ele>
        <time>2009-12-31T12:32:04Z</time>
      </trkpt>
      <trkpt lat="46.86195" lon="-1.09616">
        <ele>80</ele>
        <time>2009-12-31T12:32:11Z</time>
      </trkpt>
      <trkpt lat="46.86263" lon="-1.09472">
        <ele>82</ele>
        <time>2009-12-31T12:32:30Z</time>
      </trkpt>
      <trkpt lat="46.86342" lon="-1.09316">
        <ele>87</ele>
        <time>2009-12-31T12:32:51Z</time>
      </trkpt>
      <trkpt lat="46.86355" lon="-1.09297">
        <ele>87</ele>
        <time>2009-12-31T12:32:54Z</time>
      </trkpt>
      <trkpt lat="46.86472" lon="-1.09181">
        <ele>95</ele>
        <time>2009-12-31T12:33:17Z</time>
      </trkpt>
      <trkpt lat="46.86607" lon="-1.09066">
        <ele>96</ele>
        <time>2009-12-31T12:33:42Z</time>
      </trkpt>
      <trkpt lat="46.86694" lon="-1.08982">
        <ele>95</ele>
        <time>2009-12-31T12:33:58Z</time>
      </trkpt>
      <trkpt lat="46.87159" lon="-1.08589">
        <ele>96</ele>
        <time>2009-12-31T12:35:24Z</time>
      </trkpt>
      <trkpt lat="46.87189" lon="-1.0856">
        <ele>96</ele>
        <time>2009-12-31T12:35:30Z</time>
      </trkpt>
      <trkpt lat="46.87209" lon="-1.08533">
        <ele>95</ele>
        <time>2009-12-31T12:35:34Z</time>
      </trkpt>
      <trkpt lat="46.87235" lon="-1.08479">
        <ele>95</ele>
        <time>2009-12-31T12:35:42Z</time>
      </trkpt>
      <trkpt lat="46.87339" lon="-1.08168">
        <ele>92</ele>
        <time>2009-12-31T12:36:19Z</time>
      </trkpt>
      <trkpt lat="46.87522" lon="-1.07599">
        <ele>80</ele>
        <time>2009-12-31T12:37:28Z</time>
      </trkpt>
      <trkpt lat="46.87528" lon="-1.07564">
        <ele>80</ele>
        <time>2009-12-31T12:37:32Z</time>
      </trkpt>
      <trkpt lat="46.87561" lon="-1.07286">
        <ele>80</ele>
        <time>2009-12-31T12:38:03Z</time>
      </trkpt>
      <trkpt lat="46.87558" lon="-1.07195">
        <ele>81</ele>
        <time>2009-12-31T12:38:13Z</time>
      </trkpt>
      <trkpt lat="46.87521" lon="-1.06796">
        <ele>83</ele>
        <time>2009-12-31T12:38:57Z</time>
      </trkpt>
      <trkpt lat="46.87491" lon="-1.06567">
        <ele>82</ele>
        <time>2009-12-31T12:39:23Z</time>
      </trkpt>
      <trkpt lat="46.87491" lon="-1.06519">
        <ele>83</ele>
        <time>2009-12-31T12:39:28Z</time>
      </trkpt>
      <trkpt lat="46.87506" lon="-1.06358">
        <ele>85</ele>
        <time>2009-12-31T12:39:46Z</time>
      </trkpt>
      <trkpt lat="46.87515" lon="-1.06309">
        <ele>85</ele>
        <time>2009-12-31T12:39:51Z</time>
      </trkpt>
      <trkpt lat="46.87515" lon="-1.06309">
        <ele>85</ele>
        <time>2009-12-31T12:39:51Z</time>
      </trkpt>
      <trkpt lat="46.87664" lon="-1.05466">
        <ele>84</ele>
        <time>2009-12-31T12:41:27Z</time>
      </trkpt>
      <trkpt lat="46.87669" lon="-1.05418">
        <ele>84</ele>
        <time>2009-12-31T12:41:32Z</time>
      </trkpt>
      <trkpt lat="46.87666" lon="-1.05355">
        <ele>84</ele>
        <time>2009-12-31T12:41:39Z</time>
      </trkpt>
      <trkpt lat="46.87654" lon="-1.05257">
        <ele>83</ele>
        <time>2009-12-31T12:41:50Z</time>
      </trkpt>
      <trkpt lat="46.87629" lon="-1.05147">
        <ele>82</ele>
        <time>2009-12-31T12:42:02Z</time>
      </trkpt>
      <trkpt lat="46.87528" lon="-1.04895">
        <ele>89</ele>
        <time>2009-12-31T12:42:34Z</time>
      </trkpt>
      <trkpt lat="46.87223" lon="-1.04162">
        <ele>86</ele>
        <time>2009-12-31T12:44:08Z</time>
      </trkpt>
      <trkpt lat="46.87216" lon="-1.04129">
        <ele>86</ele>
        <time>2009-12-31T12:44:12Z</time>
      </trkpt>
      <trkpt lat="46.87202" lon="-1.04011">
        <ele>89</ele>
        <time>2009-12-31T12:44:25Z</time>
      </trkpt>
      <trkpt lat="46.87187" lon="-1.03937">
        <ele>88</ele>
        <time>2009-12-31T12:44:34Z</time>
      </trkpt>
      <trkpt lat="46.87157" lon="-1.03845">
        <ele>88</ele>
        <time>2009-12-31T12:44:45Z</time>
      </trkpt>
      <trkpt lat="46.87144" lon="-1.03819">
        <ele>88</ele>
        <time>2009-12-31T12:44:48Z</time>
      </trkpt>
      <trkpt lat="46.87132" lon="-1.03822">
        <ele>88</ele>
        <time>2009-12-31T12:44:50Z</time>
      </trkpt>
      <trkpt lat="46.87121" lon="-1.03807">
        <ele>90</ele>
        <time>2009-12-31T12:44:53Z</time>
      </trkpt>
      <trkpt lat="46.87122" lon="-1.03793">
        <ele>90</ele>
        <time>2009-12-31T12:44:54Z</time>
      </trkpt>
      <trkpt lat="46.8713" lon="-1.03783">
        <ele>90</ele>
        <time>2009-12-31T12:44:56Z</time>
      </trkpt>
      <trkpt lat="46.8713" lon="-1.03774">
        <ele>90</ele>
        <time>2009-12-31T12:44:57Z</time>
      </trkpt>
      <trkpt lat="46.87115" lon="-1.03673">
        <ele>90</ele>
        <time>2009-12-31T12:45:08Z</time>
      </trkpt>
      <trkpt lat="46.87114" lon="-1.03641">
        <ele>90</ele>
        <time>2009-12-31T12:45:12Z</time>
      </trkpt>
      <trkpt lat="46.8712" lon="-1.03598">
        <ele>91</ele>
        <time>2009-12-31T12:45:17Z</time>
      </trkpt>
      <trkpt lat="46.87153" lon="-1.03478">
        <ele>88</ele>
        <time>2009-12-31T12:45:31Z</time>
      </trkpt>
      <trkpt lat="46.87169" lon="-1.03404">
        <ele>89</ele>
        <time>2009-12-31T12:45:39Z</time>
      </trkpt>
      <trkpt lat="46.87181" lon="-1.03325">
        <ele>90</ele>
        <time>2009-12-31T12:45:48Z</time>
      </trkpt>
      <trkpt lat="46.87183" lon="-1.03285">
        <ele>91</ele>
        <time>2009-12-31T12:45:52Z</time>
      </trkpt>
      <trkpt lat="46.87181" lon="-1.03257">
        <ele>91</ele>
        <time>2009-12-31T12:45:56Z</time>
      </trkpt>
      <trkpt lat="46.8715" lon="-1.03151">
        <ele>92</ele>
        <time>2009-12-31T12:46:08Z</time>
      </trkpt>
      <trkpt lat="46.87147" lon="-1.03131">
        <ele>92</ele>
        <time>2009-12-31T12:46:10Z</time>
      </trkpt>
      <trkpt lat="46.87147" lon="-1.0309">
        <ele>92</ele>
        <time>2009-12-31T12:46:15Z</time>
      </trkpt>
      <trkpt lat="46.87154" lon="-1.03036">
        <ele>94</ele>
        <time>2009-12-31T12:46:21Z</time>
      </trkpt>
      <trkpt lat="46.8714" lon="-1.0273">
        <ele>101</ele>
        <time>2009-12-31T12:46:54Z</time>
      </trkpt>
      <trkpt lat="46.87121" lon="-1.02725">
        <ele>99</ele>
        <time>2009-12-31T12:46:58Z</time>
      </trkpt>
      <trkpt lat="46.87116" lon="-1.02712">
        <ele>99</ele>
        <time>2009-12-31T12:46:59Z</time>
      </trkpt>
      <trkpt lat="46.87117" lon="-1.02689">
        <ele>102</ele>
        <time>2009-12-31T12:47:02Z</time>
      </trkpt>
      <trkpt lat="46.87131" lon="-1.02677">
        <ele>104</ele>
        <time>2009-12-31T12:47:04Z</time>
      </trkpt>
      <trkpt lat="46.87111" lon="-1.02609">
        <ele>105</ele>
        <time>2009-12-31T12:47:12Z</time>
      </trkpt>
      <trkpt lat="46.87088" lon="-1.02551">
        <ele>105</ele>
        <time>2009-12-31T12:47:20Z</time>
      </trkpt>
      <trkpt lat="46.87088" lon="-1.02551">
        <ele>105</ele>
        <time>2009-12-31T12:47:20Z</time>
      </trkpt>
      <trkpt lat="46.87041" lon="-1.02431">
        <ele>108</ele>
        <time>2009-12-31T12:47:35Z</time>
      </trkpt>
      <trkpt lat="46.87028" lon="-1.02389">
        <ele>108</ele>
        <time>2009-12-31T12:47:40Z</time>
      </trkpt>
      <trkpt lat="46.87015" lon="-1.02318">
        <ele>110</ele>
        <time>2009-12-31T12:47:48Z</time>
      </trkpt>
      <trkpt lat="46.8701" lon="-1.02271">
        <ele>110</ele>
        <time>2009-12-31T12:47:53Z</time>
      </trkpt>
      <trkpt lat="46.8701" lon="-1.0214">
        <ele>110</ele>
        <time>2009-12-31T12:48:08Z</time>
      </trkpt>
      <trkpt lat="46.87017" lon="-1.02075">
        <ele>112</ele>
        <time>2009-12-31T12:48:15Z</time>
      </trkpt>
      <trkpt lat="46.87008" lon="-1.02066">
        <ele>112</ele>
        <time>2009-12-31T12:48:16Z</time>
      </trkpt>
      <trkpt lat="46.87016" lon="-1.02039">
        <ele>111</ele>
        <time>2009-12-31T12:48:20Z</time>
      </trkpt>
      <trkpt lat="46.87065" lon="-1.01738">
        <ele>114</ele>
        <time>2009-12-31T12:48:54Z</time>
      </trkpt>
    </trkseg>
  </trk>
</gpx>